Sonic Adventure (DX): Boss Rankings

Records: Times | Rings | Scores | Races | Bosses | Freestyle
Leaders: Times | Rings | Scores | Races | Bosses | Freestyle | Overall
Rank Player Percent Points Date
1 Sonicspeedruner 98.5% 31 08-24-15
2 Gamepro011 97.1% 58 08-24-15
3 Austinf 93.1% 141 08-24-15
4 DarkPolarNight 92.1% 162 08-24-15
5 Jawzun 90.1% 203 08-24-15
6 Parax 88.4% 239 08-24-15
7 ike6252 87.9% 250 08-24-15
8 Dashjump 86.0% 289 08-24-15
9 Avento128bits 85.2% 305 08-24-15
10 DarkspinesSonic 82.2% 368 08-24-15
11 Coolfansonic 80.6% 401 08-24-15
12 THC98 79.0% 434 08-24-15
13 F-Man 77.6% 463 08-24-15
14 TheRealShadnic 77.1% 472 08-24-15
15 drminus 76.7% 481 08-24-15
16 Marth 76.6% 484 08-24-15
17 yoshifan 74.9% 519 08-24-15
18 Mariobutch 74.2% 533 08-24-15
19 PfoSonic 73.3% 551 08-24-15
20 InferSaime 73.2% 553 08-24-15
21 HyperSonic7701 71.3% 594 08-24-15
22 RPGnutter 70.4% 612 08-24-15
23 Paragod 68.9% 642 08-24-15
24 mike89 68.2% 657 08-24-15
25 frankoredstrato 68.1% 659 08-24-15
26 Groudon199 64.0% 745 08-24-15
27 sonicam 63.8% 748 08-24-15
28 SadisticMystic 63.2% 761 08-24-15
29 Stefan 61.9% 788 08-24-15
30 Diamond 60.6% 815 08-24-15
31 Combo 58.2% 865 08-24-15
32 bertin 58.0% 869 08-24-15
33 xXMegaManXx 55.9% 911 08-24-15
34 SkyLights 55.2% 927 08-24-15
35 Dawid8404 51.4% 1004 08-24-15
36 francisco 49.7% 1040 08-24-15
37 Fr3nZy 49.4% 1047 08-24-15
38 OmegaDJ 47.0% 1096 08-24-15
39 Omega Rafael Santos 46.0% 1117 08-24-15
40 Arch 45.7% 1124 08-24-15
41 P1 Pause 44.5% 1147 08-24-15
42 Andrea Ritsu 42.2% 1196 08-24-15
43 magnum12 42.0% 1200 08-24-15
44 VeritasDL 41.8% 1204 08-24-15
45 Auriman1 38.1% 1281 08-24-15
46 James_Bertolli 35.9% 1325 08-24-15
47 teamblackarms 34.0% 1365 08-24-15
48 Hunters13 33.7% 1371 08-24-15
49 FuzZerd 33.6% 1373 08-24-15
50 Quartz 32.3% 1400 08-24-15
51 Psymar 32.1% 1405 08-24-15
52 eggFL 31.6% 1414 08-24-15
53 Cyan Ryan 31.2% 1424 08-24-15
54 Jerzia 31.0% 1428 08-24-15
55 GerbilSoft 30.4% 1440 08-24-15
56 elecmouse101 30.0% 1447 08-24-15
57 Thorn 30.0% 1448 08-24-15
58 Webber3000 29.6% 1457 08-24-15
59 videogamemaster777 29.4% 1460 08-24-15
60 Mo Player Banned 28.5% 1479 08-24-15
61 Turbos 27.8% 1493 08-24-15
62 Termon 27.3% 1504 08-24-15
63 Dave Cramer 25.9% 1533 08-24-15
63 Flying Fox 25.9% 1533 08-24-15
65 buddychaos0415 25.1% 1550 08-24-15
66 nuckrieg 24.8% 1555 08-24-15
67 Shadow Jacky 23.4% 1585 08-24-15
68 Cream147 21.4% 1625 08-24-15
69 supersonicfan 20.8% 1638 08-24-15
70 MiStEr_ShAoLiN 20.7% 1640 08-24-15
71 itsPersonnal 20.6% 1643 08-24-15
72 NintenDan 20.5% 1644 08-24-15
73 Nimrod 20.4% 1647 08-24-15
74 The T 20.2% 1651 08-24-15
75 Cybrax 20.0% 1655 08-24-15
76 supersonic465 19.8% 1660 08-24-15
77 SonicWinDX 19.4% 1667 08-24-15
78 Aitamen 19.4% 1668 08-24-15
79 Cruizer 18.8% 1679 08-24-15
80 VMU Player Banned 17.9% 1698 08-24-15
81 Game_Complete 17.2% 1712 08-24-15
82 The Great Lord Mick 16.4% 1730 08-24-15
83 Questionguy555 16.0% 1737 08-24-15
84 Drakodan 15.7% 1743 08-24-15
85 GreatStar 15.6% 1746 08-24-15
86 Spinballwizard 14.9% 1760 08-24-15
87 Sondow 14.4% 1771 08-24-15
88 sonicandamy 14.2% 1774 08-24-15
89 GarnetPrincess 13.0% 1799 08-24-15
90 SonicAD 12.0% 1820 08-24-15
91 Don 11.4% 1832 08-24-15
92 Miles9999 11.2% 1838 08-24-15
93 Siavash Tazari 10.6% 1850 08-24-15
94 Psyknux 10.2% 1857 08-24-15
95 BigAL49 10.2% 1858 08-24-15
96 Werey 10.0% 1863 08-24-15
97 Cutiefox 9.8% 1867 08-24-15
98 joecoolgames 9.6% 1870 08-24-15
99 knuckles_sonic8 9.5% 1872 08-24-15
100 mauserman 9.2% 1878 08-24-15
101 EngiNerd 8.7% 1889 08-24-15
102 Sonic Singularity 8.5% 1893 08-24-15
103 Hipertails12 8.4% 1896 08-24-15
104 dShadow 8.3% 1897 08-24-15
105 Shanekilz 7.9% 1906 08-24-15
106 Therio 7.6% 1912 08-24-15
107 Mastakirby 7.4% 1915 08-24-15
108 chainchumper 7.0% 1924 08-24-15
109 FocusSight64 6.8% 1928 08-24-15
109 sonic29887 6.8% 1928 08-24-15
111 TheChaosEmeraIds 6.7% 1930 08-24-15
112 Chao_Fan 6.5% 1934 08-24-15
113 HHNNBBHHN 6.0% 1945 08-24-15
114 tal39h 5.9% 1946 08-24-15
115 djmat 5.8% 1948 08-24-15
116 paulie9990 5.7% 1951 08-24-15
117 Sogeking 5.5% 1956 08-24-15
118 Brian_pso 5.0% 1966 08-24-15
118 Chawkk 5.0% 1966 08-24-15
120 SilvertheAlmighty 4.6% 1974 08-24-15
121 SpinDashMaster 4.5% 1975 08-24-15
122 MK 4.5% 1976 08-24-15
123 MastaToken 4.2% 1981 08-24-15
124 Badlex727 3.8% 1990 08-24-15
124 Sonique Hedgehog 3.8% 1990 08-24-15
124 SpiritDragon1995 3.8% 1990 08-24-15
127 KinkyCadence 3.6% 1995 08-24-15
128 Mad Andy 3.5% 1997 08-24-15
129 PsyBorg 3.4% 1999 08-24-15
130 FSSRandomvids 3.2% 2002 08-24-15
131 Rolken 2.8% 2010 08-24-15
131 Xia 2.8% 2010 08-24-15
133 andres430 2.5% 2017 08-24-15
134 crazy1993 2.2% 2023 08-24-15
135 dabestgamer 2.2% 2024 08-24-15
135 shadowblast63 Player Banned 2.2% 2024 08-24-15
137 Illidan 2.0% 2027 08-24-15
138 Richied 2.0% 2028 08-24-15
139 DanielTheFalcon 1.8% 2032 08-24-15
139 gamer1245 1.8% 2032 08-24-15
141 Iwannabelink 1.7% 2033 08-24-15
142 oTaiIilLsS 1.4% 2041 08-24-15
143 soniccoloursunleashed 1.3% 2043 08-24-15
144 niscool 1.2% 2044 08-24-15
145 ieatatsonic 1.1% 2047 08-24-15
146 Redd 1.0% 2048 08-24-15
147 Lil_Dude 0.7% 2054 08-24-15
147 LinksDarkArrows 0.7% 2054 08-24-15
149 Cbwade15 0.4% 2060 08-24-15
150 neaolas 0.3% 2063 08-24-15
151 BlankTH 0.2% 2065 08-24-15
152 Heroes_Hater 0.1% 2066 08-24-15
153 S-MS32X-S 0.0% 2068 08-24-15
154 KaM Mark MaK 0.0% 2070 08-24-15
154 MegabombBlade 0.0% 2070 08-24-15

This page is using the New Data Table System. [FUTURE]

Game ID: 3 | Category ID: 6
Hits: 4,016 | Hits This Month: 24 | DB Calls: 24 | Mem Usage: 5.34 MB | Time: 0.17s | Printable

The Sonic Center v3.9
Copyright 2003-2011 by The Sonic Center Team.